Hartsfield Jackson Atlanta International Airport
KATL : now visible

Airfield :











YOU CAN JOIN US ON...

 
LOGIN :

Register | Disclaimer

   EN    FR    IT 

 









Legend :    VFR   Marginal VFR   IFR   Intensive IFR   Very Intensive IFR
Visi :
Ceiling :
>= 8 km
>= 3000ft
5 to 8 km
1000 to 3000 ft
1500m to 5 km
500 to 1000 ft
800 to 1500m
200 to 500 ft
< 800m
< 200 ft
Symbols :   Thunderstorms  Fog  Heavy snow  Heavy precipitations  Wind > 20 kt






- Airport Elevation : 1026 ft
- IATA code : ATL


KATL - Hartsfield Jackson Atlanta International

CURRENT METAR :
  • 110652Z 29005KT 10SM FEW005 SCT130 BKN200 23/21 A3004 RMK AO2 SLP162 T02280206

EXPIRED METARs :
  • 110552Z 29008KT 10SM FEW005 SCT150 SCT200 BKN250 23/21 A3005 RMK AO2 SLP164 T02280206 10244 20222 58001
  • 110452Z 32005KT 10SM FEW006 SCT200 BKN250 23/21 A3007 RMK AO2 SLP171 T02280206 403500228

TAF KATL
Valid from the 11 at 06:00 until the 12 at 12:00 UTC


110520Z 1106/1212 28005KT P6SM SCT150 BKN200
FM111500 29006KT P6SM SCT030 SCT200
FM111800 31007KT P6SM VCSH SCT050
PROB30 1119/1124 VRB15G25KT 3SM TSRA BKN035CB
FM120200 34005KT P6SM SCT150
KZTL FIR / North America



MET'MAP, your aeronautical weather chart ! - Copyright ORBIFLY December 2007 - Disclaimer

ORBIFLY MET'MAP TEAM :

Programming & Development : Alexandra Zaïnal
Concept & original design : Baudouin d'Aumeries
Assistance for programming : Marc-Olivier Méhu
Technical & hardware support : Manuel Goepfert

Contact : metmap@orbifly.com




SOURCES & CREDITS :

   NOAA       Earth
Advisory